Time;durP1;ratioP1;P1;durP2;ratioP2;P2;SDS_P1;SDS_P2;PMS_P1;PMS_P2;Temp;Humidity;BMP_temperature;BMP_pressure;BME280_temperature;BME280_humidity;BME280_pressure;Samples;Min_cycle;Max_cycle;Signal;HPM_P1;HPM_P2
2023/12/09 00:00:48;;;;;;;41.03;16.17;;;8.00;99.90;;;;;;5014268;28;20410;-81
2023/12/09 00:03:13;;;;;;;29.42;15.50;;;8.00;99.90;;;;;;5014428;28;20415;-81
2023/12/09 00:05:39;;;;;;;37.05;17.00;;;8.00;99.90;;;;;;5008651;28;20095;-81
2023/12/09 00:08:05;;;;;;;33.35;15.73;;;8.00;99.90;;;;;;5023316;28;20053;-81
2023/12/09 00:10:30;;;;;;;42.55;15.75;;;8.00;99.90;;;;;;5021583;28;20048;-81
2023/12/09 00:12:56;;;;;;;35.67;16.48;;;8.00;99.90;;;;;;5015414;28;20036;-81
2023/12/09 00:15:22;;;;;;;43.22;17.35;;;7.90;99.90;;;;;;5031442;28;20037;-81
2023/12/09 00:17:47;;;;;;;42.10;16.33;;;8.00;99.90;;;;;;5012373;28;20129;-81
2023/12/09 00:20:13;;;;;;;33.78;15.93;;;8.00;99.90;;;;;;5032161;28;20045;-81
2023/12/09 00:22:40;;;;;;;36.33;14.98;;;8.00;99.90;;;;;;5017854;28;20118;-81
2023/12/09 00:25:06;;;;;;;36.40;14.68;;;8.00;99.90;;;;;;4997653;28;20049;-80
2023/12/09 00:27:32;;;;;;;37.80;14.75;;;8.00;99.90;;;;;;5017433;28;20512;-81
2023/12/09 00:29:58;;;;;;;38.65;16.38;;;8.10;99.90;;;;;;5016210;28;20046;-81
2023/12/09 00:32:24;;;;;;;38.58;16.73;;;8.10;99.90;;;;;;5032769;28;20072;-81
2023/12/09 00:34:50;;;;;;;37.38;16.33;;;8.10;99.90;;;;;;5050738;28;20065;-80
2023/12/09 00:37:15;;;;;;;40.90;16.73;;;8.00;99.90;;;;;;5014749;28;20080;-81
2023/12/09 00:39:41;;;;;;;43.35;17.00;;;8.10;99.90;;;;;;5017540;28;20037;-81
2023/12/09 00:42:07;;;;;;;32.70;15.15;;;8.10;99.90;;;;;;5016928;28;20123;-80
2023/12/09 00:44:32;;;;;;;34.42;14.30;;;8.10;99.90;;;;;;5017952;28;20044;-81
2023/12/09 00:46:58;;;;;;;41.55;16.65;;;8.10;99.90;;;;;;5017890;28;20042;-82
2023/12/09 00:49:24;;;;;;;30.48;14.70;;;8.20;99.90;;;;;;5032968;28;20045;-81
2023/12/09 00:51:49;;;;;;;33.97;15.90;;;8.20;99.90;;;;;;5016374;28;20415;-81
2023/12/09 00:54:15;;;;;;;35.70;15.27;;;8.10;99.90;;;;;;5032787;28;20090;-81
2023/12/09 00:56:41;;;;;;;35.47;14.10;;;8.10;99.90;;;;;;5033817;28;20041;-81
2023/12/09 00:59:07;;;;;;;32.45;14.20;;;8.20;99.90;;;;;;5015867;28;20056;-81
2023/12/09 01:01:33;;;;;;;29.95;13.10;;;8.20;99.90;;;;;;5016214;28;20057;-81
2023/12/09 01:04:00;;;;;;;34.25;13.85;;;8.10;99.90;;;;;;5033548;28;20033;-82
2023/12/09 01:06:28;;;;;;;30.15;14.98;;;8.20;99.90;;;;;;5047850;28;20045;-81
2023/12/09 01:08:53;;;;;;;31.02;14.73;;;8.20;99.90;;;;;;5017314;28;20041;-81
2023/12/09 01:11:19;;;;;;;34.38;14.85;;;8.20;99.90;;;;;;5031304;28;20486;-81
2023/12/09 01:13:44;;;;;;;36.28;14.10;;;8.20;99.90;;;;;;5015410;28;20033;-81
2023/12/09 01:16:10;;;;;;;36.65;14.43;;;8.20;99.90;;;;;;5049088;28;20033;-81
2023/12/09 01:18:36;;;;;;;34.40;13.88;;;8.30;99.90;;;;;;5016728;28;20433;-81
2023/12/09 01:21:01;;;;;;;36.33;13.60;;;8.30;99.90;;;;;;5031280;28;20034;-82
2023/12/09 01:23:27;;;;;;;39.60;14.55;;;8.30;99.90;;;;;;5033147;28;20095;-81
2023/12/09 01:25:53;;;;;;;33.42;13.23;;;8.30;99.90;;;;;;5015725;28;20041;-82
2023/12/09 01:28:18;;;;;;;39.25;14.73;;;8.30;99.90;;;;;;5033112;28;20571;-81
2023/12/09 01:30:44;;;;;;;33.10;13.23;;;8.30;99.90;;;;;;5014422;28;20041;-81
2023/12/09 01:33:10;;;;;;;38.58;15.43;;;8.30;99.90;;;;;;5048380;28;20401;-81
2023/12/09 01:35:35;;;;;;;29.77;13.18;;;8.30;99.90;;;;;;5032620;28;20495;-81
2023/12/09 01:38:02;;;;;;;29.95;11.60;;;8.30;99.90;;;;;;5033023;28;20128;-81
2023/12/09 01:40:28;;;;;;;27.50;13.30;;;8.30;99.90;;;;;;5014669;28;20041;-81
2023/12/09 01:42:53;;;;;;;36.92;14.35;;;8.40;99.90;;;;;;5013700;28;20037;-82
2023/12/09 01:45:20;;;;;;;40.33;15.60;;;8.30;99.90;;;;;;5030321;28;20038;-81
2023/12/09 01:47:47;;;;;;;29.27;12.45;;;8.30;99.90;;;;;;5032683;28;20494;-81
2023/12/09 01:50:14;;;;;;;32.25;13.60;;;8.30;99.90;;;;;;5031203;28;20045;-82
2023/12/09 01:52:40;;;;;;;29.08;12.43;;;8.30;99.90;;;;;;5014069;28;20453;-82
2023/12/09 01:55:09;;;;;;;32.40;11.63;;;8.40;99.90;;;;;;5032632;28;20077;-82
2023/12/09 01:57:35;;;;;;;32.90;13.27;;;8.40;99.90;;;;;;5015302;28;20053;-82
2023/12/09 02:00:03;;;;;;;31.85;12.90;;;8.40;99.90;;;;;;5031747;28;20057;-82
2023/12/09 02:02:29;;;;;;;32.40;12.70;;;8.40;99.90;;;;;;5030209;28;20052;-81
2023/12/09 02:04:55;;;;;;;31.55;14.52;;;8.40;99.90;;;;;;5032407;28;20033;-81
2023/12/09 02:07:21;;;;;;;24.98;11.73;;;8.30;99.90;;;;;;5013409;28;20486;-82
2023/12/09 02:09:47;;;;;;;32.67;13.88;;;8.30;99.90;;;;;;5032292;28;20048;-82
2023/12/09 02:12:31;;;;;;;27.67;12.25;;;8.30;99.90;;;;;;5029368;28;20488;-81
2023/12/09 02:15:22;;;;;;;36.35;13.30;;;8.30;99.90;;;;;;5015840;28;20047;-81
2023/12/09 02:17:58;;;;;;;35.15;13.60;;;8.30;99.90;;;;;;5014807;28;20068;-82
2023/12/09 02:20:26;;;;;;;26.90;10.75;;;8.30;99.90;;;;;;5031170;28;20045;-82
2023/12/09 02:23:03;;;;;;;31.10;13.00;;;8.40;99.90;;;;;;5028044;28;20034;-82
2023/12/09 02:25:28;;;;;;;29.25;13.52;;;8.30;99.90;;;;;;5032491;28;20056;-82
2023/12/09 02:27:59;;;;;;;31.75;11.48;;;8.30;99.90;;;;;;5014679;28;20033;-82
2023/12/09 02:30:34;;;;;;;31.33;12.98;;;8.30;99.90;;;;;;5014345;28;20406;-82
2023/12/09 02:33:01;;;;;;;29.52;12.15;;;8.30;99.90;;;;;;5014560;28;20033;-82
2023/12/09 02:35:29;;;;;;;25.40;10.43;;;8.30;99.90;;;;;;5032048;28;20041;-82
2023/12/09 02:37:56;;;;;;;28.55;11.50;;;8.40;99.90;;;;;;5014392;28;20067;-82
2023/12/09 02:40:23;;;;;;;30.02;12.52;;;8.30;99.90;;;;;;5014838;28;20091;-82
2023/12/09 02:42:49;;;;;;;32.40;13.10;;;8.30;99.90;;;;;;5013653;28;20502;-82
2023/12/09 02:45:19;;;;;;;32.50;13.77;;;8.20;99.90;;;;;;5014353;28;20048;-82
2023/12/09 02:47:47;;;;;;;30.17;12.70;;;8.30;99.90;;;;;;5015028;28;20038;-82
2023/12/09 02:50:13;;;;;;;29.77;12.20;;;8.30;99.90;;;;;;5013473;28;20049;-82
2023/12/09 02:52:40;;;;;;;34.67;13.85;;;8.30;99.90;;;;;;5048344;28;20124;-82
2023/12/09 02:55:07;;;;;;;30.90;13.38;;;8.30;99.90;;;;;;5036108;28;20048;-82
2023/12/09 02:57:32;;;;;;;35.47;12.40;;;8.20;99.90;;;;;;5047050;28;20430;-81
2023/12/09 02:59:58;;;;;;;31.00;12.98;;;8.30;99.90;;;;;;5030248;28;20076;-82
2023/12/09 03:02:24;;;;;;;31.38;12.15;;;8.30;99.90;;;;;;5014456;28;20042;-82
2023/12/09 03:04:49;;;;;;;34.35;12.18;;;8.30;99.90;;;;;;5029541;28;20116;-82
2023/12/09 03:07:20;;;;;;;31.05;13.48;;;8.30;99.90;;;;;;5014100;28;20091;-82
2023/12/09 03:09:48;;;;;;;26.67;12.30;;;8.40;99.90;;;;;;5031597;28;20129;-82
2023/12/09 03:12:14;;;;;;;32.17;12.23;;;8.40;99.90;;;;;;5013742;28;20060;-82
2023/12/09 03:14:39;;;;;;;25.67;10.93;;;8.40;99.90;;;;;;5012960;28;20041;-82
2023/12/09 03:17:05;;;;;;;30.42;12.85;;;8.30;99.90;;;;;;5047653;28;20045;-82
2023/12/09 03:19:31;;;;;;;28.05;11.95;;;8.40;99.90;;;;;;5031637;28;20402;-83
2023/12/09 03:21:58;;;;;;;33.03;10.93;;;8.30;99.90;;;;;;5012267;28;20044;-83
2023/12/09 03:24:24;;;;;;;39.58;12.73;;;8.40;99.90;;;;;;5048049;28;20042;-83
2023/12/09 03:26:53;;;;;;;29.60;11.65;;;8.40;99.90;;;;;;5013032;28;20041;-83
2023/12/09 03:29:19;;;;;;;23.23;11.30;;;8.30;99.90;;;;;;5015274;28;20394;-83
2023/12/09 03:31:45;;;;;;;23.88;10.20;;;8.30;99.90;;;;;;5028155;28;20033;-83
2023/12/09 03:34:12;;;;;;;27.20;11.60;;;8.40;99.90;;;;;;5014178;28;20083;-82
2023/12/09 03:36:37;;;;;;;24.27;9.70;;;8.40;99.90;;;;;;5045684;28;20063;-82
2023/12/09 03:39:03;;;;;;;33.20;12.52;;;8.40;99.90;;;;;;5031372;28;20136;-83
2023/12/09 03:41:29;;;;;;;24.65;9.88;;;8.30;99.90;;;;;;5029662;28;20473;-82
2023/12/09 03:43:56;;;;;;;28.15;9.93;;;8.30;99.90;;;;;;5029842;28;20398;-83
2023/12/09 03:46:22;;;;;;;25.48;11.38;;;8.30;99.90;;;;;;5030483;28;20041;-83
2023/12/09 03:48:47;;;;;;;24.50;12.02;;;8.30;99.90;;;;;;5044630;28;20072;-83
2023/12/09 03:51:13;;;;;;;27.38;10.63;;;8.30;99.90;;;;;;5029562;28;20451;-83
2023/12/09 03:53:41;;;;;;;28.88;12.25;;;8.20;99.90;;;;;;5013518;28;20091;-83
2023/12/09 03:56:07;;;;;;;23.40;9.90;;;8.20;99.90;;;;;;5014825;28;20482;-83
2023/12/09 03:58:33;;;;;;;26.40;10.55;;;8.30;99.90;;;;;;5029782;28;20041;-83
2023/12/09 04:00:58;;;;;;;25.20;10.27;;;8.20;99.90;;;;;;5033432;28;20387;-82
2023/12/09 04:03:24;;;;;;;21.00;9.15;;;8.30;99.90;;;;;;5033500;28;20040;-83
2023/12/09 04:05:50;;;;;;;23.92;10.50;;;8.20;99.90;;;;;;5033856;28;20041;-83
2023/12/09 04:08:15;;;;;;;20.27;8.95;;;8.20;99.90;;;;;;5033737;28;20045;-83
2023/12/09 04:10:41;;;;;;;22.08;8.40;;;8.30;99.90;;;;;;5032095;28;20076;-83
2023/12/09 04:13:07;;;;;;;22.33;8.25;;;8.30;99.90;;;;;;5034763;28;20086;-83
2023/12/09 04:15:32;;;;;;;24.77;9.18;;;8.30;99.90;;;;;;5014079;28;20726;-83
2023/12/09 04:17:58;;;;;;;24.52;9.52;;;8.30;99.90;;;;;;5017906;28;20045;-83
2023/12/09 04:20:24;;;;;;;19.70;9.82;;;8.30;99.90;;;;;;5014821;28;20033;-83
2023/12/09 04:22:49;;;;;;;21.60;8.18;;;8.30;99.90;;;;;;5033305;28;20041;-83
2023/12/09 04:25:15;;;;;;;21.35;7.93;;;8.30;99.90;;;;;;5016770;28;20120;-83
2023/12/09 04:27:41;;;;;;;27.95;9.20;;;8.30;99.90;;;;;;5016649;28;20081;-83
2023/12/09 04:30:07;;;;;;;19.90;6.10;;;8.30;99.90;;;;;;5017064;28;20052;-83
2023/12/09 04:32:32;;;;;;;24.85;8.48;;;8.30;99.90;;;;;;5016049;28;20069;-82
2023/12/09 04:34:59;;;;;;;20.42;6.90;;;8.30;99.90;;;;;;5016980;28;20122;-83
2023/12/09 04:37:24;;;;;;;22.05;7.15;;;8.20;99.90;;;;;;5016844;28;20033;-83
2023/12/09 04:39:50;;;;;;;16.17;7.47;;;8.30;99.90;;;;;;5016198;28;20549;-83
2023/12/09 04:42:18;;;;;;;12.80;5.07;;;8.20;99.90;;;;;;5016665;28;20041;-83
2023/12/09 04:44:43;;;;;;;21.45;7.80;;;8.30;99.90;;;;;;5015226;28;20069;-82
2023/12/09 04:47:09;;;;;;;20.10;8.30;;;8.30;99.90;;;;;;5032103;28;20518;-82
2023/12/09 04:49:35;;;;;;;22.15;8.60;;;8.30;99.90;;;;;;5017347;28;20083;-83
2023/12/09 04:52:01;;;;;;;19.33;6.75;;;8.40;99.90;;;;;;5030894;28;20041;-83
2023/12/09 04:54:26;;;;;;;19.38;6.88;;;8.40;99.90;;;;;;5033778;28;20128;-83
2023/12/09 04:56:52;;;;;;;26.50;8.85;;;8.30;99.90;;;;;;5015249;28;20072;-83
2023/12/09 04:59:18;;;;;;;27.05;8.10;;;8.30;99.90;;;;;;5032525;28;20052;-83
2023/12/09 05:01:43;;;;;;;28.63;8.80;;;8.20;99.90;;;;;;5013187;28;21398;-83
2023/12/09 05:04:09;;;;;;;17.20;7.75;;;8.20;99.90;;;;;;5033474;28;20037;-83
2023/12/09 05:06:35;;;;;;;22.38;8.57;;;8.20;99.90;;;;;;5016430;28;20508;-83
2023/12/09 05:09:00;;;;;;;16.08;6.70;;;8.20;99.90;;;;;;5031179;28;20037;-83
2023/12/09 05:11:26;;;;;;;19.80;7.55;;;8.20;99.90;;;;;;5030434;28;20064;-83
2023/12/09 05:13:52;;;;;;;23.75;8.30;;;8.20;99.90;;;;;;5015416;28;20394;-83
2023/12/09 05:16:18;;;;;;;22.13;7.18;;;8.10;99.90;;;;;;5031579;28;20052;-83
2023/12/09 05:18:43;;;;;;;22.85;7.97;;;8.20;99.90;;;;;;5016744;28;20045;-83
2023/12/09 05:21:12;;;;;;;20.23;8.05;;;8.20;99.90;;;;;;5014752;28;20033;-83
2023/12/09 05:23:38;;;;;;;22.38;7.65;;;8.20;99.90;;;;;;5029046;28;20042;-83
2023/12/09 05:26:04;;;;;;;27.55;8.25;;;8.30;99.90;;;;;;5033068;28;20047;-83
2023/12/09 05:28:32;;;;;;;27.92;8.43;;;8.10;99.90;;;;;;5014263;28;20124;-83
2023/12/09 05:30:58;;;;;;;26.30;8.43;;;8.10;99.90;;;;;;5026070;28;20045;-83
2023/12/09 05:33:23;;;;;;;23.95;7.97;;;8.20;99.90;;;;;;5029952;28;20041;-83
2023/12/09 05:35:49;;;;;;;25.42;8.38;;;8.10;99.90;;;;;;5016391;28;20033;-83
2023/12/09 05:38:15;;;;;;;27.10;8.98;;;8.10;99.90;;;;;;5015623;28;20073;-83
2023/12/09 05:40:40;;;;;;;28.33;8.70;;;8.10;99.90;;;;;;5015100;28;20501;-83
2023/12/09 05:43:06;;;;;;;20.00;8.07;;;8.10;99.90;;;;;;5032140;28;20490;-83
2023/12/09 05:45:32;;;;;;;20.88;7.40;;;8.10;99.90;;;;;;5029361;28;20041;-83
2023/12/09 05:47:57;;;;;;;21.85;8.35;;;8.10;99.90;;;;;;5032961;28;20080;-83
2023/12/09 05:50:23;;;;;;;23.90;7.55;;;8.10;99.90;;;;;;5031441;28;20518;-83
2023/12/09 05:52:49;;;;;;;25.02;7.32;;;8.10;99.90;;;;;;5032684;28;20502;-83
2023/12/09 05:55:15;;;;;;;30.45;7.82;;;8.10;99.90;;;;;;5029516;28;20568;-83
2023/12/09 05:57:41;;;;;;;25.17;7.80;;;8.20;99.90;;;;;;5014887;28;20030;-83
2023/12/09 06:00:12;;;;;;;21.65;7.30;;;8.20;99.90;;;;;;5015278;28;20091;-83
2023/12/09 06:02:41;;;;;;;21.52;7.95;;;8.20;99.90;;;;;;5031644;28;20040;-82
2023/12/09 06:05:07;;;;;;;19.38;7.20;;;8.30;99.90;;;;;;5029592;28;20048;-83
2023/12/09 06:07:32;;;;;;;23.67;8.38;;;8.10;99.90;;;;;;5032329;28;20051;-83
2023/12/09 06:09:58;;;;;;;24.95;8.10;;;8.10;99.90;;;;;;5014655;28;20463;-83
2023/12/09 06:12:23;;;;;;;21.15;8.48;;;8.10;99.90;;;;;;5015788;28;20047;-82
2023/12/09 06:14:49;;;;;;;24.02;8.23;;;8.10;99.90;;;;;;5015185;28;20045;-83
2023/12/09 06:17:15;;;;;;;27.98;8.73;;;8.00;99.90;;;;;;5028613;28;20042;-82
2023/12/09 06:19:41;;;;;;;24.38;9.05;;;8.00;99.90;;;;;;5032215;28;20041;-82
2023/12/09 06:22:07;;;;;;;20.75;8.20;;;8.00;99.90;;;;;;5029957;28;20067;-82
2023/12/09 06:24:32;;;;;;;24.15;8.88;;;8.00;99.90;;;;;;5031106;28;20124;-82
2023/12/09 06:26:58;;;;;;;24.98;9.05;;;8.00;99.90;;;;;;5014861;28;20049;-82
2023/12/09 06:29:24;;;;;;;25.40;9.68;;;8.00;99.90;;;;;;5032066;28;20490;-82
2023/12/09 06:31:49;;;;;;;22.40;8.52;;;8.00;99.90;;;;;;5030504;28;20045;-82
2023/12/09 06:34:15;;;;;;;22.23;8.23;;;8.00;99.90;;;;;;5029612;28;20037;-83
2023/12/09 06:36:41;;;;;;;24.83;8.57;;;8.10;99.90;;;;;;5031471;28;20045;-82
2023/12/09 06:39:07;;;;;;;14.80;6.57;;;8.00;99.90;;;;;;5012827;28;20088;-83
2023/12/09 06:41:32;;;;;;;23.65;8.40;;;7.90;99.90;;;;;;5014347;28;20043;-82
2023/12/09 06:43:58;;;;;;;18.08;8.50;;;8.00;99.90;;;;;;5015750;28;20474;-83
2023/12/09 06:46:24;;;;;;;19.23;8.25;;;7.90;99.90;;;;;;5014557;28;20034;-82
2023/12/09 06:48:49;;;;;;;22.23;8.63;;;7.90;99.90;;;;;;5030065;28;20064;-83
2023/12/09 06:51:16;;;;;;;19.77;6.68;;;7.90;99.90;;;;;;5014472;28;20057;-82
2023/12/09 06:53:42;;;;;;;19.42;8.40;;;8.00;99.90;;;;;;5030932;28;20118;-82
2023/12/09 06:56:08;;;;;;;19.70;7.85;;;7.90;99.90;;;;;;5014741;28;20046;-82
2023/12/09 06:58:36;;;;;;;20.30;7.88;;;7.90;99.90;;;;;;5028666;28;20559;-82
2023/12/09 07:01:02;;;;;;;22.35;8.77;;;7.90;99.90;;;;;;5030788;28;20041;-82
2023/12/09 07:03:27;;;;;;;19.63;7.60;;;7.80;99.90;;;;;;5031033;28;20041;-82
2023/12/09 07:05:53;;;;;;;20.88;8.45;;;7.90;99.90;;;;;;5014275;28;20073;-82
2023/12/09 07:08:18;;;;;;;19.73;7.75;;;7.90;99.90;;;;;;5026018;28;20042;-82
2023/12/09 07:10:46;;;;;;;19.98;6.15;;;7.90;99.90;;;;;;5019645;28;20499;-82
2023/12/09 07:13:11;;;;;;;25.10;7.47;;;8.00;99.90;;;;;;4996236;28;20045;-82
2023/12/09 07:15:37;;;;;;;16.92;6.68;;;7.90;99.90;;;;;;5021150;28;20040;-82
2023/12/09 07:18:04;;;;;;;21.63;7.10;;;7.80;99.90;;;;;;5012845;28;20121;-82
2023/12/09 07:20:30;;;;;;;18.35;7.60;;;7.90;99.90;;;;;;5026960;28;20091;-82
2023/12/09 07:22:55;;;;;;;18.65;6.88;;;7.80;99.90;;;;;;5029645;28;20452;-82
2023/12/09 07:25:23;;;;;;;21.08;6.70;;;7.70;99.90;;;;;;5013844;28;20041;-82
2023/12/09 07:27:50;;;;;;;16.95;6.22;;;7.80;99.90;;;;;;5031800;28;20505;-82
2023/12/09 07:30:16;;;;;;;22.88;7.25;;;7.80;99.90;;;;;;5013207;28;20037;-82
2023/12/09 07:32:42;;;;;;;25.02;8.10;;;7.80;99.90;;;;;;5032678;28;20049;-82
2023/12/09 07:35:08;;;;;;;21.13;6.97;;;7.70;99.90;;;;;;5017874;28;20127;-82
2023/12/09 07:37:33;;;;;;;21.23;7.07;;;7.70;99.90;;;;;;5033007;28;20505;-82
2023/12/09 07:39:59;;;;;;;22.75;7.05;;;7.70;99.90;;;;;;5018766;28;20041;-82
2023/12/09 07:42:24;;;;;;;21.27;7.22;;;7.70;99.90;;;;;;5034298;28;20040;-82
2023/12/09 07:44:50;;;;;;;20.52;5.75;;;7.80;99.90;;;;;;5033197;28;20045;-82
2023/12/09 07:47:16;;;;;;;18.48;6.78;;;7.80;99.90;;;;;;5018477;28;20038;-82
2023/12/09 07:49:42;;;;;;;22.63;7.32;;;7.80;99.90;;;;;;5034158;28;20052;-82
2023/12/09 07:52:07;;;;;;;16.20;6.15;;;7.70;99.90;;;;;;5017364;28;20037;-82
2023/12/09 07:54:33;;;;;;;13.77;5.63;;;7.70;99.90;;;;;;5017541;28;20045;-82
2023/12/09 07:56:58;;;;;;;21.58;6.07;;;7.70;99.90;;;;;;5017240;28;20091;-82
2023/12/09 07:59:24;;;;;;;20.27;6.15;;;7.80;99.90;;;;;;5017409;28;20076;-82
2023/12/09 08:01:50;;;;;;;17.58;5.65;;;7.80;99.90;;;;;;5034767;28;20156;-82
2023/12/09 08:04:15;;;;;;;17.83;5.18;;;7.70;99.90;;;;;;5017254;28;20033;-82
2023/12/09 08:06:41;;;;;;;16.15;3.95;;;7.70;99.90;;;;;;5018386;28;20371;-82
2023/12/09 08:09:07;;;;;;;15.77;4.90;;;7.70;99.90;;;;;;5033841;28;20037;-82
2023/12/09 08:11:32;;;;;;;17.35;5.88;;;7.70;99.90;;;;;;5018178;28;20064;-82
2023/12/09 08:13:58;;;;;;;17.83;5.30;;;7.60;99.90;;;;;;5033782;28;20113;-82
2023/12/09 08:16:23;;;;;;;19.00;5.55;;;7.60;99.90;;;;;;5034514;28;20489;-82
2023/12/09 08:18:49;;;;;;;18.98;5.93;;;7.60;99.90;;;;;;5015811;28;20045;-81
2023/12/09 08:21:15;;;;;;;9.80;3.05;;;7.70;99.90;;;;;;5018290;28;20041;-81
2023/12/09 08:23:41;;;;;;;19.17;5.28;;;7.70;99.90;;;;;;5032719;28;20038;-82
2023/12/09 08:26:07;;;;;;;16.92;5.07;;;7.80;99.90;;;;;;5034277;28;20596;-82
2023/12/09 08:28:34;;;;;;;17.20;4.47;;;7.80;99.90;;;;;;5033032;28;20116;-82
2023/12/09 08:31:00;;;;;;;17.50;4.90;;;7.80;99.90;;;;;;5033459;28;20592;-82
2023/12/09 08:33:25;;;;;;;14.35;5.10;;;7.80;99.90;;;;;;5032975;28;20128;-82
2023/12/09 08:35:51;;;;;;;14.73;4.65;;;7.70;99.90;;;;;;5013743;28;20121;-75
2023/12/09 08:38:17;;;;;;;18.83;5.15;;;7.70;99.90;;;;;;5017680;28;20449;-81
2023/12/09 08:40:42;;;;;;;10.07;3.42;;;7.70;99.90;;;;;;5016813;28;20034;-82
2023/12/09 08:43:08;;;;;;;11.60;3.38;;;7.80;99.90;;;;;;5033603;28;20041;-82
2023/12/09 08:45:34;;;;;;;14.88;3.58;;;7.80;99.90;;;;;;5016243;28;20486;-82
2023/12/09 08:48:00;;;;;;;13.02;4.43;;;7.80;99.90;;;;;;5032864;28;20042;-82
2023/12/09 08:50:25;;;;;;;14.40;4.18;;;7.80;99.90;;;;;;5017356;28;20049;-81
2023/12/09 08:52:54;;;;;;;15.05;4.20;;;7.80;99.90;;;;;;5015714;28;20520;-81
2023/12/09 08:55:20;;;;;;;15.05;3.75;;;7.80;99.90;;;;;;5029917;28;20041;-81
2023/12/09 08:57:45;;;;;;;14.63;4.13;;;7.80;99.90;;;;;;5033615;28;20120;-81
2023/12/09 09:00:11;;;;;;;8.13;3.05;;;7.80;99.90;;;;;;5033599;28;20544;-81
2023/12/09 09:02:37;;;;;;;12.27;2.72;;;7.80;99.90;;;;;;5030679;28;20041;-81
2023/12/09 09:05:03;;;;;;;14.93;4.30;;;7.80;99.90;;;;;;5030441;28;20060;-81
2023/12/09 09:07:29;;;;;;;9.10;3.05;;;7.80;99.90;;;;;;5016697;28;20041;-81
2023/12/09 09:09:55;;;;;;;15.27;4.03;;;7.80;99.90;;;;;;5015042;28;20041;-82
2023/12/09 09:12:20;;;;;;;15.57;4.50;;;7.90;99.90;;;;;;5017356;28;20401;-81
2023/12/09 09:14:46;;;;;;;13.15;3.63;;;7.80;99.90;;;;;;5016955;28;20608;-81
2023/12/09 09:17:12;;;;;;;15.93;4.03;;;7.80;99.90;;;;;;5032162;28;20076;-81
2023/12/09 09:19:37;;;;;;;13.52;3.47;;;7.80;99.90;;;;;;5015529;28;20095;-82
2023/12/09 09:22:03;;;;;;;14.73;3.97;;;7.80;99.90;;;;;;5032705;28;20076;-81
2023/12/09 09:24:28;;;;;;;14.68;3.67;;;7.80;99.90;;;;;;5016722;28;20037;-81
2023/12/09 09:26:54;;;;;;;12.50;3.25;;;7.80;99.90;;;;;;5013417;28;20052;-82
2023/12/09 09:29:20;;;;;;;12.45;3.17;;;7.90;99.90;;;;;;5014745;28;20079;-81
2023/12/09 09:31:45;;;;;;;11.07;3.20;;;7.80;99.90;;;;;;5015592;28;20029;-82
2023/12/09 09:34:11;;;;;;;11.40;2.28;;;7.90;99.90;;;;;;5033232;28;20029;-81
2023/12/09 09:36:37;;;;;;;11.15;2.95;;;8.00;99.90;;;;;;5013160;28;20104;-81
2023/12/09 09:39:02;;;;;;;15.13;3.42;;;8.10;99.90;;;;;;5017828;28;20555;-81
2023/12/09 09:41:32;;;;;;;10.15;3.08;;;8.10;99.90;;;;;;5030347;28;20045;-81
2023/12/09 09:44:11;;;;;;;13.73;2.80;;;8.10;99.90;;;;;;5032316;28;20041;-82
2023/12/09 09:46:39;;;;;;;12.18;2.78;;;8.10;99.90;;;;;;5006289;28;20650;-82
2023/12/09 09:49:05;;;;;;;9.40;2.25;;;8.10;99.90;;;;;;5006635;28;20052;-81
2023/12/09 09:51:31;;;;;;;9.10;2.30;;;8.10;99.90;;;;;;5005964;28;20046;-81
2023/12/09 09:54:23;;;;;;;11.57;2.90;;;8.10;99.90;;;;;;5010021;28;20041;-81
2023/12/09 09:56:50;;;;;;;14.55;2.45;;;8.20;99.90;;;;;;5007826;28;20186;-81
2023/12/09 09:59:20;;;;;;;11.40;2.50;;;8.10;99.90;;;;;;5033043;28;20063;-80
2023/12/09 10:01:46;;;;;;;10.43;2.58;;;8.10;99.90;;;;;;5008684;28;20069;-82
2023/12/09 10:04:12;;;;;;;13.45;3.17;;;8.00;99.90;;;;;;5025990;28;20061;-80
2023/12/09 10:06:39;;;;;;;15.48;3.10;;;8.10;99.90;;;;;;5032918;28;20030;-81
2023/12/09 10:09:05;;;;;;;14.27;3.05;;;8.10;99.90;;;;;;5029900;28;20044;-81
2023/12/09 10:11:31;;;;;;;13.48;2.90;;;8.00;99.90;;;;;;5013258;28;20045;-81
2023/12/09 10:13:56;;;;;;;10.85;2.75;;;8.00;99.90;;;;;;5028006;28;20041;-81
2023/12/09 10:16:22;;;;;;;9.98;2.30;;;8.10;99.90;;;;;;5010899;28;20122;-81
2023/12/09 10:18:48;;;;;;;12.10;3.05;;;8.10;99.90;;;;;;5024728;28;20038;-81
2023/12/09 10:21:15;;;;;;;11.90;2.70;;;8.10;99.90;;;;;;5025681;28;20147;-81
2023/12/09 10:23:44;;;;;;;12.90;2.25;;;8.10;99.90;;;;;;5027200;28;20080;-81
2023/12/09 10:26:10;;;;;;;13.07;4.07;;;8.00;99.90;;;;;;5030835;28;20049;-82
2023/12/09 10:28:36;;;;;;;7.95;2.50;;;8.10;99.90;;;;;;5011706;28;20470;-80
2023/12/09 10:31:02;;;;;;;9.82;2.50;;;8.00;99.90;;;;;;5028977;28;20041;-81
2023/12/09 10:33:32;;;;;;;8.93;2.33;;;8.10;99.90;;;;;;5031759;28;20551;-81
2023/12/09 10:36:00;;;;;;;12.73;2.85;;;8.10;99.90;;;;;;5028734;28;20052;-81
2023/12/09 10:38:29;;;;;;;7.38;2.40;;;8.20;99.90;;;;;;5022980;28;20092;-81
2023/12/09 10:40:56;;;;;;;10.57;2.30;;;8.20;99.90;;;;;;5024585;28;20030;-82
2023/12/09 10:43:23;;;;;;;11.15;2.95;;;8.20;99.90;;;;;;5026804;28;20048;-81
2023/12/09 10:45:49;;;;;;;13.43;2.47;;;8.20;99.90;;;;;;5010323;28;20514;-81
2023/12/09 10:48:15;;;;;;;7.47;2.15;;;8.20;99.90;;;;;;5014585;28;20045;-81
2023/12/09 10:50:45;;;;;;;9.57;2.67;;;8.30;99.90;;;;;;5014538;28;20504;-81
2023/12/09 10:53:10;;;;;;;7.80;2.28;;;8.20;99.90;;;;;;5014818;28;20091;-81
2023/12/09 10:55:36;;;;;;;8.48;2.47;;;8.20;99.90;;;;;;5005195;28;20045;-81
2023/12/09 10:58:04;;;;;;;13.20;2.70;;;8.30;99.90;;;;;;5030306;28;20502;-81
2023/12/09 11:00:32;;;;;;;9.88;2.53;;;8.30;99.90;;;;;;5012650;28;20046;-81
2023/12/09 11:02:58;;;;;;;10.98;3.03;;;8.30;99.90;;;;;;5014315;28;20045;-81
2023/12/09 11:05:25;;;;;;;13.43;2.63;;;8.30;99.90;;;;;;5027894;28;20072;-81
2023/12/09 11:07:53;;;;;;;13.32;3.13;;;8.30;99.90;;;;;;5022670;28;20405;-80
2023/12/09 11:10:20;;;;;;;8.45;2.25;;;8.30;99.90;;;;;;5034208;28;20183;-82
2023/12/09 11:12:47;;;;;;;9.65;2.40;;;8.30;99.90;;;;;;5025373;28;20041;-82
2023/12/09 11:15:13;;;;;;;6.50;1.77;;;8.40;99.90;;;;;;5035033;28;20045;-82
2023/12/09 11:17:40;;;;;;;9.50;2.72;;;8.40;99.90;;;;;;5016096;28;20034;-82
2023/12/09 11:20:15;;;;;;;12.20;2.70;;;8.40;99.90;;;;;;5032447;28;20040;-81
2023/12/09 11:22:43;;;;;;;11.10;2.20;;;8.40;99.90;;;;;;5016631;28;20045;-82
2023/12/09 11:25:12;;;;;;;7.55;1.98;;;8.30;99.90;;;;;;5017818;28;20065;-81
2023/12/09 11:27:38;;;;;;;11.52;2.60;;;8.40;99.90;;;;;;5022907;28;20068;-82
2023/12/09 11:30:05;;;;;;;9.07;2.90;;;8.40;99.90;;;;;;5035354;28;20041;-82
2023/12/09 11:32:31;;;;;;;10.75;2.60;;;8.40;99.90;;;;;;5035513;28;20136;-81
2023/12/09 11:34:57;;;;;;;8.52;2.13;;;8.30;99.90;;;;;;5034287;28;20367;-81
2023/12/09 11:37:26;;;;;;;8.15;1.73;;;8.40;99.90;;;;;;5016869;28;20046;-81
2023/12/09 11:39:55;;;;;;;7.70;2.28;;;8.40;99.90;;;;;;5035947;28;20398;-81
2023/12/09 11:42:21;;;;;;;9.20;2.60;;;8.40;99.90;;;;;;5020708;28;20037;-81
2023/12/09 11:44:47;;;;;;;8.57;2.20;;;8.30;99.90;;;;;;5030931;28;20033;-81
2023/12/09 11:47:14;;;;;;;6.35;2.03;;;8.30;99.90;;;;;;5050732;28;20133;-82
2023/12/09 11:49:40;;;;;;;7.47;2.35;;;8.40;99.90;;;;;;5018287;28;20491;-81
2023/12/09 11:52:07;;;;;;;10.43;2.03;;;8.40;99.90;;;;;;5033489;28;20128;-81
2023/12/09 11:54:34;;;;;;;7.18;1.75;;;8.50;99.90;;;;;;5018075;28;20080;-81
2023/12/09 11:57:00;;;;;;;10.15;2.47;;;8.50;99.90;;;;;;5016968;28;20049;-81
2023/12/09 11:59:25;;;;;;;10.23;2.50;;;8.60;99.90;;;;;;5014920;28;20057;-81
2023/12/09 12:01:51;;;;;;;11.07;2.50;;;8.60;99.90;;;;;;5020611;28;20032;-81
2023/12/09 12:04:17;;;;;;;9.55;3.05;;;8.60;99.90;;;;;;5017284;28;20468;-81
2023/12/09 12:06:42;;;;;;;10.57;2.67;;;8.70;99.90;;;;;;5016226;28;20050;-81
2023/12/09 12:09:09;;;;;;;13.57;4.20;;;8.60;99.90;;;;;;5017777;28;20053;-83
2023/12/09 12:11:35;;;;;;;8.57;2.30;;;8.60;99.90;;;;;;5032806;28;20447;-81
2023/12/09 12:14:01;;;;;;;16.10;5.35;;;8.60;99.90;;;;;;5017554;28;20045;-81
2023/12/09 12:16:26;;;;;;;13.32;3.15;;;8.60;99.90;;;;;;5016781;28;20095;-81
2023/12/09 12:18:55;;;;;;;8.95;2.60;;;8.60;99.90;;;;;;5017157;28;20052;-81
2023/12/09 12:21:21;;;;;;;5.97;2.10;;;8.60;99.90;;;;;;5017668;28;20064;-81
2023/12/09 12:23:51;;;;;;;9.30;2.25;;;8.70;99.90;;;;;;5014244;28;20072;-81
2023/12/09 12:26:17;;;;;;;6.40;2.67;;;8.70;99.90;;;;;;5030960;28;20049;-81
2023/12/09 12:28:48;;;;;;;9.20;2.30;;;8.70;99.90;;;;;;5020940;28;20046;-81
2023/12/09 12:31:13;;;;;;;9.15;2.22;;;8.70;99.90;;;;;;5017318;28;20088;-81
2023/12/09 12:33:39;;;;;;;6.22;1.38;;;8.80;99.90;;;;;;5015775;28;20076;-81
2023/12/09 12:36:06;;;;;;;7.97;1.75;;;8.70;99.90;;;;;;5030256;28;20406;-80
2023/12/09 12:38:32;;;;;;;7.22;2.00;;;8.60;99.90;;;;;;5017052;28;20528;-81
2023/12/09 12:40:58;;;;;;;9.63;2.08;;;8.70;99.90;;;;;;5017204;28;20496;-78